Time;durP1;ratioP1;P1;durP2;ratioP2;P2;SDS_P1;SDS_P2;PMS_P1;PMS_P2;Temp;Humidity;BMP_temperature;BMP_pressure;BME280_temperature;BME280_humidity;BME280_pressure;Samples;Min_cycle;Max_cycle;Signal;HPM_P1;HPM_P2
2021/09/01 00:01:18;;;;;;;9.23;6.47;;;11.80;99.90;;;;;;5011590;28;20421;-72
2021/09/01 00:03:46;;;;;;;10.60;5.93;;;11.90;99.90;;;;;;5011611;28;20449;-72
2021/09/01 00:06:14;;;;;;;13.77;6.80;;;11.80;99.90;;;;;;5015153;28;20400;-71
2021/09/01 00:08:43;;;;;;;16.33;7.80;;;11.90;99.90;;;;;;5015158;28;20435;-71
2021/09/01 00:11:11;;;;;;;9.13;6.33;;;11.90;99.90;;;;;;5015202;28;20435;-72
2021/09/01 00:13:41;;;;;;;7.03;6.33;;;11.90;99.90;;;;;;5015517;28;20990;-71
2021/09/01 00:16:25;;;;;;;13.30;7.20;;;11.90;99.90;;;;;;5015181;28;20442;-72
2021/09/01 00:18:53;;;;;;;9.73;8.37;;;11.90;99.90;;;;;;5015222;28;20708;-72
2021/09/01 00:21:21;;;;;;;9.00;5.90;;;11.80;99.90;;;;;;5014892;28;20454;-72
2021/09/01 00:23:50;;;;;;;8.67;6.70;;;11.80;99.90;;;;;;5015111;28;20838;-72
2021/09/01 00:26:19;;;;;;;10.17;7.07;;;11.80;99.90;;;;;;5014940;28;20519;-72
2021/09/01 00:28:49;;;;;;;14.10;7.83;;;11.80;99.90;;;;;;5015099;28;20914;-72
2021/09/01 00:31:18;;;;;;;9.47;6.87;;;11.80;99.90;;;;;;5014819;28;20428;-71
2021/09/01 00:33:47;;;;;;;9.00;6.17;;;11.80;99.90;;;;;;5015073;28;20890;-71
2021/09/01 00:36:15;;;;;;;10.73;6.27;;;11.80;99.90;;;;;;4996764;28;20548;-72
2021/09/01 00:38:44;;;;;;;9.87;7.27;;;11.80;99.90;;;;;;5014970;28;20436;-72
2021/09/01 00:41:14;;;;;;;9.07;6.50;;;11.70;99.90;;;;;;5014603;28;20432;-72
2021/09/01 00:43:42;;;;;;;8.07;6.87;;;11.90;99.90;;;;;;5014853;28;20943;-72
2021/09/01 00:46:11;;;;;;;8.50;7.30;;;11.90;99.90;;;;;;5014248;28;20792;-72
2021/09/01 00:48:39;;;;;;;12.20;8.00;;;11.80;99.90;;;;;;5014415;28;20400;-72
2021/09/01 00:51:08;;;;;;;9.97;7.97;;;11.80;99.90;;;;;;5014530;28;20418;-71
2021/09/01 00:53:42;;;;;;;10.93;6.83;;;11.80;99.90;;;;;;5014599;28;20460;-72
2021/09/01 00:56:14;;;;;;;12.10;6.90;;;11.80;99.90;;;;;;5014240;28;20388;-72
2021/09/01 00:58:42;;;;;;;9.37;6.77;;;11.90;99.90;;;;;;5014291;28;20448;-72
2021/09/01 01:01:17;;;;;;;10.43;7.63;;;11.80;99.90;;;;;;5014125;28;20496;-74
2021/09/01 01:03:47;;;;;;;9.23;6.90;;;11.80;99.90;;;;;;5014762;28;20459;-72
2021/09/01 01:06:16;;;;;;;14.40;8.50;;;11.80;99.90;;;;;;5014256;28;20425;-72
2021/09/01 01:08:45;;;;;;;9.57;6.80;;;11.80;99.90;;;;;;5014353;28;20400;-72
2021/09/01 01:11:15;;;;;;;8.80;7.37;;;11.70;99.90;;;;;;5014155;28;20380;-72
2021/09/01 01:13:43;;;;;;;10.30;7.53;;;11.70;99.90;;;;;;5014304;28;20534;-73
2021/09/01 01:16:14;;;;;;;12.27;8.17;;;11.70;99.90;;;;;;5013007;28;20474;-72
2021/09/01 01:18:45;;;;;;;11.10;7.40;;;11.80;99.90;;;;;;5014421;28;20409;-73
2021/09/01 01:21:15;;;;;;;9.43;7.40;;;11.70;99.90;;;;;;5014595;28;20475;-72
2021/09/01 01:23:43;;;;;;;11.20;7.20;;;11.70;99.90;;;;;;5014720;28;20471;-71
2021/09/01 01:26:12;;;;;;;10.73;8.17;;;11.80;99.90;;;;;;5021974;28;20430;-72
2021/09/01 01:28:40;;;;;;;12.10;9.97;;;11.80;99.90;;;;;;5021459;28;20433;-72
2021/09/01 01:31:08;;;;;;;10.17;6.83;;;11.80;99.90;;;;;;5022607;28;20935;-72
2021/09/01 01:33:36;;;;;;;8.97;6.90;;;11.80;99.90;;;;;;5022221;28;20482;-71
2021/09/01 01:36:05;;;;;;;14.53;9.20;;;11.90;99.90;;;;;;5016311;28;20391;-71
2021/09/01 01:38:33;;;;;;;11.10;8.43;;;12.00;99.90;;;;;;5014173;28;20491;-72
2021/09/01 01:41:01;;;;;;;10.70;9.27;;;12.10;99.90;;;;;;5014565;28;20980;-71
2021/09/01 01:43:35;;;;;;;13.60;9.97;;;12.10;99.90;;;;;;5014429;28;20421;-72
2021/09/01 01:46:04;;;;;;;11.97;9.00;;;12.20;99.90;;;;;;5013898;28;20395;-72
2021/09/01 01:48:33;;;;;;;12.20;8.60;;;12.20;99.90;;;;;;5013881;28;20462;-72
2021/09/01 01:51:02;;;;;;;10.43;8.80;;;12.30;99.90;;;;;;5014323;28;20481;-72
2021/09/01 01:53:30;;;;;;;11.23;8.13;;;12.30;99.90;;;;;;5013144;28;20560;-72
2021/09/01 01:55:59;;;;;;;13.20;9.83;;;12.30;99.90;;;;;;5013539;28;20898;-72
2021/09/01 01:58:27;;;;;;;9.90;8.20;;;12.30;99.90;;;;;;5013688;28;20439;-72
2021/09/01 02:00:56;;;;;;;11.10;8.50;;;12.20;99.90;;;;;;5013332;28;20406;-72
2021/09/01 02:03:24;;;;;;;17.30;10.50;;;12.30;99.90;;;;;;5013496;28;20452;-72
2021/09/01 02:05:53;;;;;;;10.77;9.17;;;12.20;99.90;;;;;;5013135;28;20491;-72
2021/09/01 02:08:21;;;;;;;10.97;9.03;;;12.20;99.90;;;;;;5012488;28;20491;-72
2021/09/01 02:10:49;;;;;;;11.27;8.93;;;12.20;99.90;;;;;;5010333;28;20970;-73
2021/09/01 02:13:17;;;;;;;13.83;10.10;;;12.20;99.90;;;;;;5009945;28;20577;-72
2021/09/01 02:15:45;;;;;;;13.83;8.23;;;12.20;99.90;;;;;;5012367;28;20444;-72
2021/09/01 02:18:14;;;;;;;15.03;8.87;;;12.20;99.90;;;;;;5012918;28;20514;-71
2021/09/01 02:20:42;;;;;;;15.47;9.67;;;12.10;99.90;;;;;;5013105;28;20889;-72
2021/09/01 02:23:10;;;;;;;12.00;9.43;;;12.10;99.90;;;;;;5012375;28;20516;-72
2021/09/01 02:25:38;;;;;;;12.60;8.77;;;12.00;99.90;;;;;;5012558;28;20457;-71
2021/09/01 02:28:06;;;;;;;15.40;9.87;;;12.00;99.90;;;;;;5012220;28;20445;-71
2021/09/01 02:30:34;;;;;;;11.50;8.70;;;11.90;99.90;;;;;;5011994;28;20438;-72
2021/09/01 02:33:02;;;;;;;11.93;8.83;;;11.90;99.90;;;;;;5012549;28;20526;-72
2021/09/01 02:35:32;;;;;;;13.70;11.30;;;11.90;99.90;;;;;;5012130;28;20417;-72
2021/09/01 02:38:00;;;;;;;15.20;9.60;;;11.90;99.90;;;;;;5012502;28;20527;-72
2021/09/01 02:40:28;;;;;;;16.67;12.30;;;11.90;99.90;;;;;;5012434;28;20403;-72
2021/09/01 02:42:56;;;;;;;14.73;11.20;;;12.00;99.90;;;;;;5012382;28;20436;-73
2021/09/01 02:45:24;;;;;;;19.53;12.33;;;12.00;99.90;;;;;;5012277;28;20524;-72
2021/09/01 02:47:52;;;;;;;19.10;12.90;;;11.90;99.90;;;;;;5012036;28;20457;-72
2021/09/01 02:50:20;;;;;;;16.50;11.83;;;12.00;99.90;;;;;;5012217;28;20987;-72
2021/09/01 02:52:49;;;;;;;19.73;13.13;;;11.90;99.90;;;;;;5012372;28;20935;-71
2021/09/01 02:55:17;;;;;;;17.03;12.20;;;12.00;99.90;;;;;;5012057;28;20460;-72
2021/09/01 02:57:46;;;;;;;20.03;13.33;;;12.00;99.90;;;;;;5012006;28;20431;-72
2021/09/01 03:00:14;;;;;;;14.80;10.43;;;12.00;99.90;;;;;;5011924;28;20408;-72
2021/09/01 03:02:43;;;;;;;16.33;11.00;;;11.90;99.90;;;;;;5012150;28;20432;-72
2021/09/01 03:05:11;;;;;;;12.93;10.67;;;11.90;99.90;;;;;;5012102;28;20399;-72
2021/09/01 03:07:39;;;;;;;15.30;12.27;;;11.90;99.90;;;;;;5012258;28;21009;-72
2021/09/01 03:10:09;;;;;;;12.80;10.70;;;12.00;99.90;;;;;;5011801;28;20777;-72
2021/09/01 03:12:37;;;;;;;15.23;11.23;;;12.00;99.90;;;;;;5012321;28;20395;-72
2021/09/01 03:15:06;;;;;;;15.93;11.83;;;12.00;99.90;;;;;;5012573;28;20801;-72
2021/09/01 03:17:34;;;;;;;14.60;10.73;;;11.90;99.90;;;;;;5011963;28;20471;-72
2021/09/01 03:20:02;;;;;;;20.07;12.43;;;11.90;99.90;;;;;;5012366;28;20435;-72
2021/09/01 03:22:30;;;;;;;13.33;11.60;;;11.80;99.90;;;;;;5012042;28;20453;-72
2021/09/01 03:24:58;;;;;;;13.10;9.93;;;11.80;99.90;;;;;;5012214;28;20515;-71
2021/09/01 03:27:28;;;;;;;13.47;9.80;;;11.70;99.90;;;;;;5040320;23;20496;-70
2021/09/01 03:29:56;;;;;;;15.80;11.67;;;11.60;99.90;;;;;;5030045;28;20959;-69
2021/09/01 03:32:24;;;;;;;15.23;10.93;;;11.60;99.90;;;;;;5028685;28;20522;-69
2021/09/01 03:34:52;;;;;;;17.80;12.87;;;11.60;99.90;;;;;;5029964;28;20515;-70
2021/09/01 03:37:21;;;;;;;15.47;10.07;;;11.50;99.90;;;;;;5029227;28;20394;-69
2021/09/01 03:39:49;;;;;;;13.47;10.73;;;11.50;99.90;;;;;;5031698;28;20426;-69
2021/09/01 03:42:17;;;;;;;19.90;11.80;;;11.50;99.90;;;;;;5033727;28;20545;-70
2021/09/01 03:44:46;;;;;;;17.33;11.90;;;11.50;99.90;;;;;;5033682;28;20425;-67
2021/09/01 03:47:14;;;;;;;11.23;8.13;;;11.60;99.90;;;;;;5034009;28;20406;-69
2021/09/01 03:49:43;;;;;;;11.50;8.73;;;11.70;99.90;;;;;;5033757;28;20455;-70
2021/09/01 03:52:12;;;;;;;9.03;7.37;;;11.60;99.90;;;;;;5033804;28;20771;-70
2021/09/01 03:54:41;;;;;;;10.03;8.07;;;11.50;99.90;;;;;;5033788;28;20866;-69
2021/09/01 03:57:09;;;;;;;11.77;8.43;;;11.60;99.90;;;;;;5015745;28;20427;-68
2021/09/01 03:59:37;;;;;;;9.13;6.47;;;11.60;99.90;;;;;;5033361;28;20539;-69
2021/09/01 04:02:07;;;;;;;12.43;6.53;;;11.60;99.90;;;;;;5033633;28;20415;-69
2021/09/01 04:04:36;;;;;;;10.40;7.07;;;11.60;99.90;;;;;;5016015;28;20414;-69
2021/09/01 04:07:04;;;;;;;8.10;5.70;;;11.60;99.90;;;;;;5028248;28;20428;-69
2021/09/01 04:09:33;;;;;;;8.97;6.77;;;11.50;99.90;;;;;;5015471;28;20436;-69
2021/09/01 04:12:06;;;;;;;6.00;5.00;;;11.40;99.90;;;;;;5033723;28;20499;-69
2021/09/01 04:14:34;;;;;;;8.20;5.33;;;11.50;99.90;;;;;;5033513;28;20504;-70
2021/09/01 04:17:02;;;;;;;8.73;4.70;;;11.40;99.90;;;;;;5032697;28;20424;-69
2021/09/01 04:19:32;;;;;;;5.97;4.10;;;11.40;99.90;;;;;;5032350;28;20942;-69
2021/09/01 04:22:00;;;;;;;10.50;6.50;;;11.50;99.90;;;;;;5032619;28;20831;-68
2021/09/01 04:24:28;;;;;;;7.93;5.43;;;11.50;99.90;;;;;;5032677;28;20391;-69
2021/09/01 04:26:56;;;;;;;9.20;5.03;;;11.50;99.90;;;;;;5032639;28;20432;-69
2021/09/01 04:29:24;;;;;;;5.20;4.63;;;11.50;99.90;;;;;;5032276;28;20409;-69
2021/09/01 04:31:52;;;;;;;7.53;6.30;;;11.60;99.90;;;;;;5027194;28;20435;-67
2021/09/01 04:34:20;;;;;;;7.27;4.87;;;11.70;99.90;;;;;;5018984;28;21003;-70
2021/09/01 04:36:50;;;;;;;6.70;4.67;;;11.80;99.90;;;;;;5024035;28;20446;-68
2021/09/01 04:39:18;;;;;;;10.90;6.77;;;11.80;99.90;;;;;;5016392;28;20440;-64
2021/09/01 04:41:51;;;;;;;9.70;5.33;;;11.90;99.90;;;;;;5015714;28;20498;-64
2021/09/01 04:44:19;;;;;;;8.90;6.03;;;11.90;99.90;;;;;;5032100;28;20459;-66
2021/09/01 04:46:47;;;;;;;9.13;6.70;;;11.90;99.90;;;;;;5016379;28;20398;-68
2021/09/01 04:49:15;;;;;;;8.30;5.90;;;12.00;99.90;;;;;;5038689;28;20458;-68
2021/09/01 04:51:43;;;;;;;7.67;5.93;;;12.20;99.90;;;;;;5044641;28;20444;-68
2021/09/01 04:54:13;;;;;;;7.60;5.60;;;12.30;99.90;;;;;;5038939;28;20968;-69
2021/09/01 04:56:41;;;;;;;5.83;4.87;;;12.20;99.90;;;;;;5035609;28;20435;-68
2021/09/01 04:59:09;;;;;;;6.70;4.50;;;12.30;99.90;;;;;;5035449;28;20443;-69
2021/09/01 05:01:38;;;;;;;4.53;3.50;;;12.60;99.90;;;;;;5033586;28;20661;-69
2021/09/01 05:04:06;;;;;;;4.60;4.20;;;13.10;99.90;;;;;;5033760;28;20431;-70
2021/09/01 05:06:34;;;;;;;7.73;6.00;;;13.60;99.90;;;;;;5032326;28;20407;-68
2021/09/01 05:09:02;;;;;;;6.00;4.50;;;13.90;99.90;;;;;;5032677;28;20844;-69
2021/09/01 05:11:32;;;;;;;5.70;4.90;;;13.90;99.90;;;;;;5032098;28;20455;-68
2021/09/01 05:14:00;;;;;;;4.87;3.60;;;13.80;99.90;;;;;;5032723;28;20406;-69
2021/09/01 05:16:28;;;;;;;5.27;3.70;;;13.60;99.90;;;;;;5014245;28;20432;-69
2021/09/01 05:18:56;;;;;;;3.57;3.00;;;13.30;99.90;;;;;;5032587;28;20441;-70
2021/09/01 05:21:27;;;;;;;3.47;2.43;;;13.10;99.90;;;;;;5032168;28;20828;-69
2021/09/01 05:23:56;;;;;;;5.83;2.50;;;13.00;99.90;;;;;;5032559;28;20762;-69
2021/09/01 05:26:33;;;;;;;3.23;2.90;;;13.00;99.90;;;;;;5031950;28;20424;-71
2021/09/01 05:29:03;;;;;;;5.50;2.63;;;13.00;99.90;;;;;;5032609;28;20394;-70
2021/09/01 05:31:32;;;;;;;2.67;2.10;;;13.00;99.90;;;;;;5031995;28;20434;-68
2021/09/01 05:34:04;;;;;;;2.73;1.90;;;12.90;99.90;;;;;;5032202;28;20405;-69
2021/09/01 05:36:33;;;;;;;3.17;2.30;;;12.90;99.90;;;;;;5013745;28;20431;-69
2021/09/01 05:39:02;;;;;;;3.30;2.43;;;13.00;99.90;;;;;;5031966;28;20424;-70
2021/09/01 05:41:31;;;;;;;3.73;2.10;;;13.10;99.90;;;;;;5031930;28;20498;-69
2021/09/01 05:44:01;;;;;;;6.03;3.07;;;13.20;99.90;;;;;;5032019;28;20436;-69
2021/09/01 05:46:31;;;;;;;3.30;3.00;;;13.40;99.90;;;;;;5031338;28;20511;-68
2021/09/01 05:49:00;;;;;;;2.80;1.90;;;13.40;99.90;;;;;;5031856;28;20451;-69
2021/09/01 05:51:29;;;;;;;3.73;2.00;;;13.60;99.90;;;;;;5031612;28;20510;-70
2021/09/01 05:53:58;;;;;;;2.30;1.73;;;13.70;99.90;;;;;;5031821;28;20849;-70
2021/09/01 05:56:30;;;;;;;3.00;2.00;;;13.80;99.90;;;;;;5013552;28;20481;-68
2021/09/01 05:59:06;;;;;;;3.43;2.40;;;14.00;99.90;;;;;;5031692;28;20407;-69
2021/09/01 06:01:40;;;;;;;2.87;1.93;;;14.10;99.90;;;;;;5030772;28;20494;-69
2021/09/01 06:04:10;;;;;;;3.60;2.47;;;14.10;99.90;;;;;;5031598;28;20419;-69
2021/09/01 06:06:39;;;;;;;3.47;2.33;;;14.10;99.90;;;;;;5031019;28;20395;-68
2021/09/01 06:09:09;;;;;;;5.47;3.80;;;14.20;99.90;;;;;;5031429;28;20399;-68
2021/09/01 06:11:38;;;;;;;3.33;1.70;;;14.30;99.90;;;;;;5030984;28;20448;-70
2021/09/01 06:14:08;;;;;;;2.87;2.03;;;14.40;99.90;;;;;;5031150;28;20469;-69
2021/09/01 06:16:36;;;;;;;2.67;2.07;;;14.50;99.90;;;;;;5030580;28;20468;-68
2021/09/01 06:19:04;;;;;;;3.77;2.90;;;14.50;99.90;;;;;;5031004;28;20414;-68
2021/09/01 06:21:34;;;;;;;1.63;1.33;;;14.60;99.90;;;;;;5030795;28;20481;-68
2021/09/01 06:24:03;;;;;;;4.53;1.90;;;14.80;99.90;;;;;;5015063;28;20419;-68
2021/09/01 06:26:31;;;;;;;4.70;2.20;;;14.90;99.90;;;;;;4992260;28;20411;-68
2021/09/01 06:29:00;;;;;;;4.00;2.00;;;14.90;99.90;;;;;;4993168;28;20397;-69
2021/09/01 06:31:34;;;;;;;3.33;1.90;;;14.90;99.90;;;;;;4991676;28;20853;-70
2021/09/01 06:34:03;;;;;;;1.87;1.77;;;14.90;99.90;;;;;;4991327;28;20435;-69
2021/09/01 06:36:31;;;;;;;1.97;1.50;;;14.90;99.90;;;;;;5008730;28;20497;-70
2021/09/01 06:38:59;;;;;;;3.20;2.00;;;15.00;99.90;;;;;;5010916;28;20456;-69
2021/09/01 06:41:28;;;;;;;2.13;1.93;;;15.10;99.90;;;;;;4996029;28;20839;-69
2021/09/01 06:43:56;;;;;;;2.43;2.23;;;15.10;99.90;;;;;;4990946;28;20476;-70
2021/09/01 06:46:24;;;;;;;1.93;1.60;;;15.20;99.90;;;;;;4990680;28;20401;-69
2021/09/01 06:48:53;;;;;;;2.00;1.80;;;15.20;99.90;;;;;;4990789;28;20432;-69
2021/09/01 06:51:22;;;;;;;2.93;2.60;;;15.30;99.90;;;;;;4991014;28;20434;-69
2021/09/01 06:53:50;;;;;;;2.50;1.30;;;15.30;99.90;;;;;;4991171;28;20902;-69
2021/09/01 06:56:19;;;;;;;2.87;2.67;;;15.30;99.90;;;;;;4990871;28;20444;-69
2021/09/01 06:58:58;;;;;;;2.50;2.10;;;15.50;99.90;;;;;;4991108;28;20400;-70
2021/09/01 07:01:26;;;;;;;3.40;1.80;;;15.50;99.90;;;;;;5003633;28;20428;-69
2021/09/01 07:03:56;;;;;;;4.13;2.13;;;15.50;99.90;;;;;;5010320;28;20404;-68
2021/09/01 07:06:24;;;;;;;1.30;1.07;;;15.60;99.90;;;;;;5008720;28;20427;-69
2021/09/01 07:08:53;;;;;;;2.70;1.83;;;15.60;99.90;;;;;;5009940;28;20505;-69
2021/09/01 07:11:21;;;;;;;2.30;1.90;;;15.70;99.90;;;;;;5010377;28;20444;-70
2021/09/01 07:13:49;;;;;;;2.10;1.50;;;15.80;99.90;;;;;;5009883;28;20400;-70
2021/09/01 07:16:17;;;;;;;2.63;1.93;;;15.90;99.90;;;;;;5010077;28;20472;-69
2021/09/01 07:18:46;;;;;;;3.83;1.80;;;16.00;99.90;;;;;;4992382;28;20403;-68
2021/09/01 07:21:15;;;;;;;1.90;1.70;;;16.00;99.90;;;;;;5010440;28;20776;-69
2021/09/01 07:23:44;;;;;;;1.40;1.00;;;16.00;99.90;;;;;;5012241;28;20858;-70
2021/09/01 07:26:12;;;;;;;2.17;1.60;;;16.20;99.90;;;;;;4990106;28;20427;-69
2021/09/01 07:28:41;;;;;;;3.53;1.80;;;16.30;99.90;;;;;;4989949;28;20426;-69
2021/09/01 07:31:10;;;;;;;2.17;1.97;;;16.50;99.90;;;;;;4972968;28;20416;-69
2021/09/01 07:33:39;;;;;;;1.67;1.40;;;16.40;99.90;;;;;;5010206;28;20400;-68
2021/09/01 07:36:07;;;;;;;2.97;1.90;;;16.50;99.90;;;;;;4993131;28;20974;-68
2021/09/01 07:38:37;;;;;;;6.40;2.47;;;16.60;99.90;;;;;;4990550;28;20952;-69
2021/09/01 07:41:05;;;;;;;1.87;1.53;;;16.60;99.90;;;;;;5005077;28;20734;-69
2021/09/01 07:43:33;;;;;;;3.47;2.13;;;16.90;99.90;;;;;;5010446;28;20931;-68
2021/09/01 07:46:02;;;;;;;3.17;1.97;;;17.10;99.90;;;;;;5009916;28;20403;-67
2021/09/01 07:48:30;;;;;;;2.80;1.60;;;17.20;99.90;;;;;;5009694;28;20870;-68
2021/09/01 07:50:58;;;;;;;2.57;2.03;;;17.20;99.90;;;;;;5009843;28;20403;-70
2021/09/01 07:53:27;;;;;;;3.17;2.10;;;17.20;99.90;;;;;;5009501;28;20423;-68
2021/09/01 07:55:56;;;;;;;1.97;1.27;;;17.30;99.90;;;;;;5009414;28;20447;-70
2021/09/01 07:58:24;;;;;;;2.07;1.80;;;17.40;99.90;;;;;;5009889;28;20933;-69
2021/09/01 08:00:52;;;;;;;3.00;2.30;;;17.60;62.10;;;;;;5009766;28;20433;-68
2021/09/01 08:03:21;;;;;;;7.43;2.93;;;17.60;67.50;;;;;;5009501;28;20783;-69
2021/09/01 08:05:49;;;;;;;3.40;2.07;;;17.90;1.00;;;;;;5009416;28;20437;-70
2021/09/01 08:08:18;;;;;;;2.43;1.80;;;17.80;1.00;;;;;;5009509;28;20929;-69
2021/09/01 08:10:46;;;;;;;2.27;1.90;;;17.80;99.90;;;;;;5009674;28;20400;-70
2021/09/01 08:13:15;;;;;;;3.60;1.83;;;17.80;1.00;;;;;;5009789;28;20429;-68
2021/09/01 08:15:44;;;;;;;2.80;2.33;;;17.70;1.00;;;;;;5009067;28;20412;-69
2021/09/01 08:18:12;;;;;;;4.70;2.63;;;17.70;99.90;;;;;;5009554;28;20520;-68
2021/09/01 08:20:40;;;;;;;3.07;1.50;;;17.70;1.00;;;;;;5009341;28;20396;-69
2021/09/01 08:23:08;;;;;;;2.50;1.57;;;17.80;99.90;;;;;;5009803;28;20817;-69
2021/09/01 08:25:37;;;;;;;3.50;2.30;;;17.70;99.90;;;;;;5010720;28;20425;-69
2021/09/01 08:28:05;;;;;;;4.40;2.67;;;17.80;99.90;;;;;;5013064;28;20952;-69
2021/09/01 08:30:35;;;;;;;5.23;2.47;;;17.60;99.90;;;;;;5013774;28;20400;-68
2021/09/01 08:33:03;;;;;;;4.37;2.90;;;17.60;99.90;;;;;;4994801;28;20835;-69
2021/09/01 08:35:31;;;;;;;4.90;3.00;;;17.40;99.90;;;;;;4993244;28;20465;-69
2021/09/01 08:37:59;;;;;;;2.57;1.83;;;17.40;99.90;;;;;;4996812;28;21032;-70
2021/09/01 08:40:27;;;;;;;3.73;2.87;;;17.30;99.90;;;;;;5008221;28;20407;-69
2021/09/01 08:42:56;;;;;;;3.10;2.80;;;17.20;99.90;;;;;;4996542;28;20440;-69
2021/09/01 08:45:24;;;;;;;2.97;2.20;;;17.10;99.90;;;;;;4993178;28;20888;-69
2021/09/01 08:47:56;;;;;;;2.13;1.47;;;17.10;99.90;;;;;;4992332;28;20396;-69
2021/09/01 08:50:28;;;;;;;2.60;2.10;;;17.10;99.90;;;;;;4993094;28;20397;-68
2021/09/01 08:52:57;;;;;;;3.00;2.50;;;17.10;99.90;;;;;;4992980;28;20540;-69
2021/09/01 08:55:28;;;;;;;4.03;2.97;;;17.20;99.90;;;;;;4993304;28;20415;-70
2021/09/01 08:57:57;;;;;;;3.73;2.80;;;17.20;99.90;;;;;;4992800;28;20469;-69
2021/09/01 09:00:25;;;;;;;4.40;2.77;;;17.00;99.90;;;;;;4992938;28;20477;-69
2021/09/01 09:02:57;;;;;;;3.67;2.70;;;16.80;99.90;;;;;;4992843;28;20767;-68
2021/09/01 09:05:34;;;;;;;3.70;2.67;;;16.40;99.90;;;;;;4993064;28;20424;-68
2021/09/01 09:08:04;;;;;;;4.93;2.63;;;16.40;99.90;;;;;;4992620;28;20422;-69
2021/09/01 09:10:34;;;;;;;2.77;2.57;;;16.40;99.90;;;;;;4992337;28;20417;-70
2021/09/01 09:13:05;;;;;;;3.80;3.50;;;16.30;99.90;;;;;;4975202;28;20448;-69
2021/09/01 09:15:33;;;;;;;6.67;3.30;;;16.40;99.90;;;;;;5009416;28;20414;-69
2021/09/01 09:18:04;;;;;;;3.73;3.23;;;16.40;99.90;;;;;;5012251;28;20961;-69
2021/09/01 09:20:35;;;;;;;3.23;2.90;;;16.30;99.90;;;;;;5012128;28;20396;-68
2021/09/01 09:23:05;;;;;;;3.40;2.43;;;16.30;99.90;;;;;;5012138;28;20447;-68
2021/09/01 09:25:35;;;;;;;4.87;2.67;;;16.40;99.90;;;;;;4996253;28;20507;-68
2021/09/01 09:28:05;;;;;;;3.40;2.37;;;16.60;99.90;;;;;;5032854;23;20502;-71
2021/09/01 09:30:38;;;;;;;2.93;2.47;;;16.80;99.90;;;;;;5034483;28;20410;-71
2021/09/01 09:33:13;;;;;;;4.10;2.27;;;16.70;99.90;;;;;;5034438;28;20931;-71
2021/09/01 09:35:55;;;;;;;2.57;1.90;;;16.80;99.90;;;;;;5033800;28;20450;-71
2021/09/01 09:38:35;;;;;;;2.40;2.20;;;16.80;99.90;;;;;;5031788;28;20446;-72
2021/09/01 09:41:06;;;;;;;3.23;2.23;;;16.90;99.90;;;;;;5034171;28;20398;-71
2021/09/01 09:43:35;;;;;;;5.07;3.50;;;16.90;99.90;;;;;;5033944;28;20415;-72
2021/09/01 09:46:07;;;;;;;4.43;3.60;;;17.20;99.90;;;;;;5034133;28;20421;-72
2021/09/01 09:48:38;;;;;;;3.47;3.03;;;17.30;99.90;;;;;;5033984;28;20931;-71
2021/09/01 09:51:08;;;;;;;4.17;2.37;;;17.60;99.90;;;;;;5033373;28;20829;-70
2021/09/01 09:53:38;;;;;;;2.70;2.47;;;17.50;99.90;;;;;;5033513;28;20407;-71
2021/09/01 09:56:14;;;;;;;3.13;2.87;;;17.50;99.90;;;;;;5033675;28;20407;-72
2021/09/01 09:58:43;;;;;;;4.20;3.03;;;17.50;99.90;;;;;;5033749;28;20434;-72
2021/09/01 10:01:13;;;;;;;3.30;2.63;;;17.20;99.90;;;;;;5028106;28;20655;-73
2021/09/01 10:03:44;;;;;;;6.73;2.50;;;17.10;99.90;;;;;;5014184;28;20729;-72
2021/09/01 10:06:16;;;;;;;4.20;3.90;;;17.20;99.90;;;;;;5013485;28;20400;-71
2021/09/01 10:08:45;;;;;;;4.97;2.57;;;17.30;99.90;;;;;;5013758;28;20440;-71
2021/09/01 10:11:15;;;;;;;2.30;2.10;;;17.10;99.90;;;;;;5013459;28;20826;-71
2021/09/01 10:13:47;;;;;;;3.57;2.10;;;17.10;99.90;;;;;;5013112;28;20430;-71
2021/09/01 10:16:29;;;;;;;3.87;3.13;;;17.20;99.90;;;;;;5013048;28;20436;-71
2021/09/01 10:19:07;;;;;;;3.80;2.20;;;17.20;99.90;;;;;;5013220;28;20445;-71
2021/09/01 10:21:39;;;;;;;3.03;1.87;;;17.20;99.90;;;;;;5013433;28;20448;-72
2021/09/01 10:24:23;;;;;;;3.40;2.10;;;17.20;99.90;;;;;;5010898;28;21122;-71
2021/09/01 10:27:12;;;;;;;3.30;2.37;;;17.30;99.90;;;;;;5012113;28;20462;-72
2021/09/01 10:29:46;;;;;;;2.33;1.90;;;17.50;99.90;;;;;;5013313;28;20395;-71
2021/09/01 10:32:29;;;;;;;2.47;1.63;;;17.50;99.90;;;;;;5013894;28;20416;-72
2021/09/01 10:35:32;;;;;;;3.73;2.03;;;17.80;99.90;;;;;;5012638;28;20408;-72
2021/09/01 10:38:06;;;;;;;3.53;2.23;;;17.70;99.90;;;;;;5012948;28;20449;-72
2021/09/01 10:40:53;;;;;;;2.97;2.67;;;17.60;99.90;;;;;;5012929;28;20524;-71
2021/09/01 10:43:22;;;;;;;4.17;1.60;;;17.90;99.90;;;;;;5013053;28;20789;-71
2021/09/01 10:45:55;;;;;;;4.63;2.17;;;18.30;99.90;;;;;;5012827;28;20475;-71
2021/09/01 10:48:23;;;;;;;2.80;1.70;;;18.40;99.90;;;;;;5012688;28;20502;-72
2021/09/01 10:50:53;;;;;;;2.47;2.13;;;18.70;99.90;;;;;;5012682;28;20411;-72
2021/09/01 10:53:24;;;;;;;3.70;3.03;;;18.70;99.90;;;;;;5012944;28;20407;-72
2021/09/01 10:55:59;;;;;;;2.60;2.23;;;19.00;99.90;;;;;;5012435;28;20946;-71
2021/09/01 10:58:35;;;;;;;1.97;1.57;;;19.00;99.90;;;;;;5012555;28;20861;-71
2021/09/01 11:01:18;;;;;;;2.23;1.40;;;19.10;99.90;;;;;;5012486;28;20412;-72
2021/09/01 11:03:50;;;;;;;1.50;1.40;;;18.70;99.90;;;;;;5013188;28;20463;-72
2021/09/01 11:06:25;;;;;;;3.30;2.10;;;19.10;99.90;;;;;;5012481;28;20831;-72
2021/09/01 11:09:01;;;;;;;2.30;1.97;;;18.90;99.90;;;;;;5012452;28;20451;-71
2021/09/01 11:11:54;;;;;;;2.17;1.97;;;19.20;99.90;;;;;;5012958;28;20466;-72
2021/09/01 11:14:37;;;;;;;4.17;2.70;;;19.40;99.90;;;;;;5012276;28;20483;-72
2021/09/01 11:17:08;;;;;;;5.70;2.60;;;19.30;99.90;;;;;;5012298;28;20423;-71
2021/09/01 11:19:37;;;;;;;2.77;2.10;;;19.00;99.90;;;;;;5012635;28;20840;-72
2021/09/01 11:22:09;;;;;;;4.27;2.90;;;18.90;99.90;;;;;;5012317;28;20456;-72
2021/09/01 11:24:49;;;;;;;2.90;2.40;;;19.10;99.90;;;;;;5012068;28;20463;-71
2021/09/01 11:27:21;;;;;;;2.60;2.33;;;19.10;99.90;;;;;;5011914;28;20460;-72
2021/09/01 11:29:50;;;;;;;3.60;2.93;;;19.00;99.90;;;;;;5012128;28;20448;-72
2021/09/01 11:32:19;;;;;;;4.50;2.87;;;18.80;99.90;;;;;;5012346;28;20527;-71
2021/09/01 11:34:49;;;;;;;2.67;2.13;;;19.10;99.90;;;;;;5012179;28;20854;-71
2021/09/01 11:37:20;;;;;;;2.73;1.50;;;19.60;99.90;;;;;;5010897;28;20793;-71
2021/09/01 11:39:51;;;;;;;3.83;2.43;;;19.70;99.90;;;;;;5012157;28;20422;-72
2021/09/01 11:42:34;;;;;;;2.90;1.73;;;19.90;99.90;;;;;;5012097;28;20789;-72
2021/09/01 11:45:10;;;;;;;2.23;1.70;;;20.00;99.90;;;;;;5011420;28;20417;-72
2021/09/01 11:47:43;;;;;;;3.97;2.50;;;20.00;99.90;;;;;;5011664;28;20515;-72
2021/09/01 11:50:16;;;;;;;2.73;2.20;;;20.10;99.90;;;;;;5011484;28;20443;-71
2021/09/01 11:52:52;;;;;;;2.77;2.07;;;20.00;99.90;;;;;;5012313;28;20461;-71
2021/09/01 11:55:23;;;;;;;3.03;2.47;;;20.10;99.90;;;;;;5011934;28;20414;-71
2021/09/01 11:57:51;;;;;;;2.10;1.90;;;20.10;99.90;;;;;;5011930;28;20552;-72
2021/09/01 12:00:19;;;;;;;4.17;2.03;;;20.00;99.90;;;;;;5012725;28;20421;-71
2021/09/01 12:02:50;;;;;;;2.53;2.13;;;20.10;99.90;;;;;;5015889;28;20425;-72
2021/09/01 12:05:37;;;;;;;2.43;2.00;;;20.30;99.90;;;;;;5015433;28;20486;-72
2021/09/01 12:08:15;;;;;;;3.53;2.50;;;20.30;99.90;;;;;;5014664;28;20453;-71
2021/09/01 12:10:44;;;;;;;3.40;1.87;;;20.40;99.90;;;;;;4995945;28;20794;-71
2021/09/01 12:13:12;;;;;;;2.73;1.80;;;20.50;99.90;;;;;;4996332;28;20429;-71
2021/09/01 12:15:54;;;;;;;2.40;1.80;;;20.30;99.90;;;;;;5005003;28;20954;-71
2021/09/01 12:18:23;;;;;;;2.50;1.90;;;20.20;99.90;;;;;;5027976;28;20467;-72
2021/09/01 12:20:56;;;;;;;2.37;2.00;;;20.20;99.90;;;;;;5035237;28;20428;-72
2021/09/01 12:23:28;;;;;;;3.70;2.50;;;20.50;99.90;;;;;;5032053;28;20911;-72
2021/09/01 12:26:05;;;;;;;4.20;2.80;;;20.80;99.90;;;;;;5014050;28;20429;-71
2021/09/01 12:28:44;;;;;;;3.07;2.40;;;21.00;99.90;;;;;;5015085;28;20460;-73
2021/09/01 12:31:20;;;;;;;4.07;1.93;;;21.10;99.90;;;;;;5015050;28;20516;-72
2021/09/01 12:33:49;;;;;;;2.00;1.80;;;21.00;99.90;;;;;;5024177;28;20427;-71
2021/09/01 12:36:25;;;;;;;2.30;1.70;;;20.80;99.90;;;;;;5016718;28;20460;-72
2021/09/01 12:38:55;;;;;;;3.83;2.20;;;20.70;99.90;;;;;;5015177;28;20526;-72
2021/09/01 12:41:24;;;;;;;3.37;1.53;;;20.50;99.90;;;;;;5016860;28;20439;-71
2021/09/01 12:43:59;;;;;;;1.50;1.20;;;20.60;99.90;;;;;;5015266;28;20479;-72
2021/09/01 12:46:27;;;;;;;1.90;1.60;;;20.90;99.90;;;;;;5014693;28;20943;-72
2021/09/01 12:48:55;;;;;;;1.73;1.50;;;20.70;99.90;;;;;;5013639;28;20491;-72
2021/09/01 12:51:23;;;;;;;2.13;1.77;;;20.80;99.90;;;;;;5014904;28;20463;-73
2021/09/01 12:53:52;;;;;;;2.50;1.70;;;20.90;99.90;;;;;;5028721;28;20445;-72
2021/09/01 12:56:26;;;;;;;3.37;2.57;;;20.90;99.90;;;;;;5033207;28;20522;-72
2021/09/01 12:58:55;;;;;;;2.50;1.90;;;20.80;99.90;;;;;;5022639;28;20874;-72